Kriti I — SZRD — position and weather

sailwx.info

Track history (hours):
 
Tides and Currents Weather Stations Pressure Air Temp Water Temp Dewpoint Dewpoint Depression Visibility Wind Speed Wind Dir Waves Ship Positions

Kriti I

Last reported at 2017-Dec-10 05:37 UTC. Time now 2017-Dec-12 12:35 UTC.
Position N 38°47' E 013°21'.

Length 204 m; draft 6.9 m.

Type: Passenger vessel. MMSI: 237022000.

Date/timePositionNaut miles runAvg speedWind from/ knotsBaromVisibWave heightAir tempDewpointWater temp
2017-Dec-10 05:37N 38°47' E 013°21'218.6
2017-Dec-10 05:30N 38°45' E 013°22'918.5
2017-Dec-10 05:01N 38°37' E 013°26'918.2
2017-Dec-10 04:31N 38°28' E 013°30'918.4
2017-Dec-10 04:00N 38°20' E 013°35'918.4
2017-Dec-10 03:31N 38°11' E 013°39'918.2
2017-Dec-10 03:01N 38°02' E 013°42'3 6.0
2017-Dec-10 02:30N 37°59' E 013°42'0 0.0
2017-Dec-10 02:00N 37°59' E 013°42'0 0.0
2017-Dec-10 01:30N 37°59' E 013°42'0 0.0
2017-Dec-10 01:00N 37°59' E 013°42'0 0.0
2017-Dec-10 00:31N 37°59' E 013°42'0 0.0
2017-Dec-09 23:58N 37°59' E 013°42'0 0.1
2017-Dec-09 23:30N 37°59' E 013°42'2 4.1
2017-Dec-09 23:01N 38°01' E 013°44'1019.1
2017-Dec-09 22:30N 38°10' E 013°39'918.6
2017-Dec-09 22:01N 38°19' E 013°35'918.6
2017-Dec-09 21:30N 38°27' E 013°30'918.5
2017-Dec-09 21:00N 38°36' E 013°26'918.4
2017-Dec-09 20:30N 38°45' E 013°22'  
2017-Dec-07 03:49N 38°51' E 013°19'620.4
2017-Dec-07 03:31N 38°45' E 013°22'1020.4
2017-Dec-07 03:00N 38°35' E 013°27'1020.5
2017-Dec-07 02:30N 38°26' E 013°31'1020.4
2017-Dec-07 02:01N 38°16' E 013°36'1020.3
2017-Dec-07 01:31N 38°07' E 013°41'815.0
2017-Dec-07 01:00N 37°59' E 013°43'1 1.0
2017-Dec-07 00:28N 37°59' E 013°42'0 0.0
2017-Dec-06 23:58N 37°59' E 013°42'0 0.0
2017-Dec-06 23:29N 37°59' E 013°42'0 0.0
2017-Dec-06 22:59N 37°59' E 013°42'0 0.0
2017-Dec-06 22:31N 37°59' E 013°42'1 1.2
2017-Dec-06 22:01N 37°59' E 013°43'612.6
2017-Dec-06 21:30N 38°05' E 013°42'1020.1
2017-Dec-06 21:00N 38°15' E 013°37'  
2017-Dec-04 10:30N 37°59' E 013°42'0 0.4
2017-Dec-04 10:00N 37°59' E 013°43'3 5.3
2017-Dec-04 09:30N 38°02' E 013°44'1019.8
2017-Dec-04 09:01N 38°11' E 013°39'1020.3
2017-Dec-04 08:30N 38°20' E 013°34'1020.7
2017-Dec-04 08:00N 38°30' E 013°29'1020.4
2017-Dec-04 07:31N 38°40' E 013°25'9 0.4
2017-Dec-03 05:09N 38°48' E 013°20'318.9
2017-Dec-03 05:00N 38°46' E 013°22'919.0
2017-Dec-03 04:31N 38°37' E 013°26'918.8
2017-Dec-03 04:01N 38°28' E 013°31'1019.0
2017-Dec-03 03:30N 38°19' E 013°35'1019.3
2017-Dec-03 03:00N 38°10' E 013°39'1019.1
2017-Dec-03 02:31N 38°01' E 013°43'2 4.1
2017-Dec-03 02:00N 37°59' E 013°42'0 0.0
2017-Dec-03 01:30N 37°59' E 013°42'0 0.0
2017-Dec-03 01:00N 37°59' E 013°42'0 0.0
2017-Dec-03 00:30N 37°59' E 013°42'0 0.0
2017-Dec-02 23:58N 37°59' E 013°42'0 0.0
2017-Dec-02 23:28N 37°59' E 013°42'0 0.0
2017-Dec-02 22:58N 37°59' E 013°42'0 0.0
2017-Dec-02 22:30N 37°59' E 013°42'2 3.2
2017-Dec-02 22:00N 37°60' E 013°44'918.2
2017-Dec-02 21:30N 38°09' E 013°47'918.9
2017-Dec-02 21:00N 38°18' E 013°48'918.7
2017-Dec-02 20:30N 38°27' E 013°49'1018.6
2017-Dec-02 19:58N 38°37' E 013°50'11719.2
2017-Dec-02 13:53N 40°33' E 014°09'719.9
2017-Dec-02 13:30N 40°40' E 014°13'918.5
2017-Dec-02 13:00N 40°49' E 014°17'2 0.5
2017-Dec-02 09:04N 40°51' E 014°16'0 1.9
2017-Dec-02 08:59N 40°50' E 014°16'3 6.6
2017-Dec-02 08:30N 40°47' E 014°17'919.3
2017-Dec-02 08:00N 40°39' E 014°13'11820.5
2017-Dec-02 02:16N 38°42' E 013°51'620.4
2017-Dec-02 01:58N 38°36' E 013°50'920.2
2017-Dec-02 01:30N 38°27' E 013°48'1020.2
2017-Dec-02 01:00N 38°17' E 013°47'1020.2
2017-Dec-02 00:30N 38°07' E 013°45'816.0
2017-Dec-02 00:01N 37°59' E 013°43'1 1.1
2017-Dec-01 23:30N 37°59' E 013°42'0 0.0
2017-Dec-01 23:00N 37°59' E 013°42'0 0.0
2017-Dec-01 22:28N 37°59' E 013°42'0 0.5
2017-Dec-01 22:01N 37°59' E 013°43'2 3.5
2017-Dec-01 21:30N 38°01' E 013°44'1019.3
2017-Dec-01 21:00N 38°10' E 013°40'1020.0
2017-Dec-01 20:30N 38°19' E 013°35'1020.3
2017-Dec-01 20:00N 38°28' E 013°30'1020.6
2017-Dec-01 19:30N 38°38' E 013°26'  
Track history (hours):
 
Tides and Currents Weather Stations Pressure Air Temp Water Temp Dewpoint Dewpoint Depression Visibility Wind Speed Wind Dir Waves Ship Positions

Kriti I

Last reported at 2017-Dec-10 05:37 UTC. Time now 2017-Dec-12 12:35 UTC.
Position N 38°47' E 013°21'.

Length 204 m; draft 6.9 m.

Type: Passenger vessel. MMSI: 237022000.

Date/timePositionNaut miles runAvg speedWind from/ knotsBaromVisibWave heightAir tempDewpointWater temp
2017-Dec-10 05:37N 38°47' E 013°21'218.6
2017-Dec-10 05:30N 38°45' E 013°22'918.5
2017-Dec-10 05:01N 38°37' E 013°26'918.2
2017-Dec-10 04:31N 38°28' E 013°30'918.4
2017-Dec-10 04:00N 38°20' E 013°35'918.4
2017-Dec-10 03:31N 38°11' E 013°39'918.2
2017-Dec-10 03:01N 38°02' E 013°42'3 6.0
2017-Dec-10 02:30N 37°59' E 013°42'0 0.0
2017-Dec-10 02:00N 37°59' E 013°42'0 0.0
2017-Dec-10 01:30N 37°59' E 013°42'0 0.0
2017-Dec-10 01:00N 37°59' E 013°42'0 0.0
2017-Dec-10 00:31N 37°59' E 013°42'0 0.0
2017-Dec-09 23:58N 37°59' E 013°42'0 0.1
2017-Dec-09 23:30N 37°59' E 013°42'2 4.1
2017-Dec-09 23:01N 38°01' E 013°44'1019.1
2017-Dec-09 22:30N 38°10' E 013°39'918.6
2017-Dec-09 22:01N 38°19' E 013°35'918.6
2017-Dec-09 21:30N 38°27' E 013°30'918.5
2017-Dec-09 21:00N 38°36' E 013°26'918.4
2017-Dec-09 20:30N 38°45' E 013°22'  
2017-Dec-07 03:49N 38°51' E 013°19'620.4
2017-Dec-07 03:31N 38°45' E 013°22'1020.4
2017-Dec-07 03:00N 38°35' E 013°27'1020.5
2017-Dec-07 02:30N 38°26' E 013°31'1020.4
2017-Dec-07 02:01N 38°16' E 013°36'1020.3
2017-Dec-07 01:31N 38°07' E 013°41'815.0
2017-Dec-07 01:00N 37°59' E 013°43'1 1.0
2017-Dec-07 00:28N 37°59' E 013°42'0 0.0
2017-Dec-06 23:58N 37°59' E 013°42'0 0.0
2017-Dec-06 23:29N 37°59' E 013°42'0 0.0
2017-Dec-06 22:59N 37°59' E 013°42'0 0.0
2017-Dec-06 22:31N 37°59' E 013°42'1 1.2
2017-Dec-06 22:01N 37°59' E 013°43'612.6
2017-Dec-06 21:30N 38°05' E 013°42'1020.1
2017-Dec-06 21:00N 38°15' E 013°37'  
2017-Dec-04 10:30N 37°59' E 013°42'0 0.4
2017-Dec-04 10:00N 37°59' E 013°43'3 5.3
2017-Dec-04 09:30N 38°02' E 013°44'1019.8
2017-Dec-04 09:01N 38°11' E 013°39'1020.3
2017-Dec-04 08:30N 38°20' E 013°34'1020.7
2017-Dec-04 08:00N 38°30' E 013°29'1020.4
2017-Dec-04 07:31N 38°40' E 013°25'9 0.4
2017-Dec-03 05:09N 38°48' E 013°20'318.9
2017-Dec-03 05:00N 38°46' E 013°22'919.0
2017-Dec-03 04:31N 38°37' E 013°26'918.8
2017-Dec-03 04:01N 38°28' E 013°31'1019.0
2017-Dec-03 03:30N 38°19' E 013°35'1019.3
2017-Dec-03 03:00N 38°10' E 013°39'1019.1
2017-Dec-03 02:31N 38°01' E 013°43'2 4.1
2017-Dec-03 02:00N 37°59' E 013°42'0 0.0
2017-Dec-03 01:30N 37°59' E 013°42'0 0.0
2017-Dec-03 01:00N 37°59' E 013°42'0 0.0
2017-Dec-03 00:30N 37°59' E 013°42'0 0.0
2017-Dec-02 23:58N 37°59' E 013°42'0 0.0
2017-Dec-02 23:28N 37°59' E 013°42'0 0.0
2017-Dec-02 22:58N 37°59' E 013°42'0 0.0
2017-Dec-02 22:30N 37°59' E 013°42'2 3.2
2017-Dec-02 22:00N 37°60' E 013°44'918.2
2017-Dec-02 21:30N 38°09' E 013°47'918.9
2017-Dec-02 21:00N 38°18' E 013°48'918.7
2017-Dec-02 20:30N 38°27' E 013°49'1018.6
2017-Dec-02 19:58N 38°37' E 013°50'11719.2
2017-Dec-02 13:53N 40°33' E 014°09'719.9
2017-Dec-02 13:30N 40°40' E 014°13'918.5
2017-Dec-02 13:00N 40°49' E 014°17'2 0.5
2017-Dec-02 09:04N 40°51' E 014°16'0 1.9
2017-Dec-02 08:59N 40°50' E 014°16'3 6.6
2017-Dec-02 08:30N 40°47' E 014°17'919.3
2017-Dec-02 08:00N 40°39' E 014°13'11820.5
2017-Dec-02 02:16N 38°42' E 013°51'620.4
2017-Dec-02 01:58N 38°36' E 013°50'920.2
2017-Dec-02 01:30N 38°27' E 013°48'1020.2
2017-Dec-02 01:00N 38°17' E 013°47'1020.2
2017-Dec-02 00:30N 38°07' E 013°45'816.0
2017-Dec-02 00:01N 37°59' E 013°43'1 1.1
2017-Dec-01 23:30N 37°59' E 013°42'0 0.0
2017-Dec-01 23:00N 37°59' E 013°42'0 0.0
2017-Dec-01 22:28N 37°59' E 013°42'0 0.5
2017-Dec-01 22:01N 37°59' E 013°43'2 3.5
2017-Dec-01 21:30N 38°01' E 013°44'1019.3
2017-Dec-01 21:00N 38°10' E 013°40'1020.0
2017-Dec-01 20:30N 38°19' E 013°35'1020.3
2017-Dec-01 20:00N 38°28' E 013°30'1020.6
2017-Dec-01 19:30N 38°38' E 013°26'  

Dump ship's entire track history